Time;durP1;ratioP1;P1;durP2;ratioP2;P2;SDS_P1;SDS_P2;PMS_P1;PMS_P2;Temp;Humidity;BMP_temperature;BMP_pressure;BME280_temperature;BME280_humidity;BME280_pressure;Samples;Min_cycle;Max_cycle;Signal;HPM_P1;HPM_P2
2022/10/15 00:01:59;;;;;;;2.42;0.57;;;22.40;99.90;;;;;;4951489;29;20201;-77
2022/10/15 00:04:31;;;;;;;1.17;0.30;;;22.30;99.90;;;;;;4953984;29;20185;-78
2022/10/15 00:07:04;;;;;;;0.90;0.30;;;22.50;99.90;;;;;;4947160;29;20518;-77
2022/10/15 00:09:35;;;;;;;0.60;0.30;;;22.60;99.90;;;;;;4954576;29;20197;-79
2022/10/15 00:12:05;;;;;;;1.75;0.40;;;22.60;99.90;;;;;;4953946;29;20193;-78
2022/10/15 00:14:36;;;;;;;1.60;0.30;;;22.70;99.90;;;;;;4954485;29;20219;-78
2022/10/15 00:17:07;;;;;;;2.15;0.50;;;22.80;99.90;;;;;;4954328;29;20643;-79
2022/10/15 00:19:38;;;;;;;2.03;0.63;;;22.70;99.90;;;;;;4954086;29;20196;-78
2022/10/15 00:22:10;;;;;;;2.15;0.40;;;22.70;99.90;;;;;;4954029;29;20199;-80
2022/10/15 00:24:42;;;;;;;2.78;0.40;;;22.80;99.90;;;;;;4954436;29;20276;-78
2022/10/15 00:27:12;;;;;;;1.92;0.38;;;22.70;99.90;;;;;;4951368;28;20201;-77
2022/10/15 00:29:43;;;;;;;3.33;0.40;;;22.80;99.90;;;;;;4957787;29;20199;-77
2022/10/15 00:32:14;;;;;;;3.70;0.45;;;22.80;99.90;;;;;;4957208;29;20193;-77
2022/10/15 00:34:45;;;;;;;2.85;0.50;;;22.90;99.90;;;;;;4956793;29;20190;-77
2022/10/15 00:37:18;;;;;;;0.77;0.30;;;22.90;99.90;;;;;;4954828;29;20189;-78
2022/10/15 00:39:49;;;;;;;1.98;0.57;;;22.80;99.90;;;;;;4957170;29;20193;-77
2022/10/15 00:42:20;;;;;;;0.65;0.30;;;22.70;99.90;;;;;;4955375;29;20235;-77
2022/10/15 00:44:57;;;;;;;0.63;0.32;;;22.70;99.90;;;;;;4956628;29;20287;-76
2022/10/15 00:47:34;;;;;;;13.52;8.85;;;22.80;99.90;;;;;;4957507;29;20185;-78
2022/10/15 00:50:10;;;;;;;2.05;1.20;;;22.70;99.90;;;;;;4941918;29;20189;-76
2022/10/15 00:52:51;;;;;;;2.15;0.50;;;22.80;99.90;;;;;;4955149;28;20236;-77
2022/10/15 00:55:28;;;;;;;2.88;0.73;;;22.90;99.90;;;;;;4957268;29;20204;-75
2022/10/15 00:58:01;;;;;;;3.20;1.63;;;22.90;99.90;;;;;;4957767;29;20219;-76
2022/10/15 01:00:32;;;;;;;0.90;0.40;;;22.80;99.90;;;;;;4956398;29;20200;-76
2022/10/15 01:03:03;;;;;;;0.93;0.50;;;22.80;99.90;;;;;;4956774;29;20219;-76
2022/10/15 01:05:35;;;;;;;2.33;0.35;;;23.00;99.90;;;;;;4957638;29;20201;-76
2022/10/15 01:08:07;;;;;;;1.67;0.40;;;23.10;99.90;;;;;;4954244;29;20543;-76
2022/10/15 01:10:46;;;;;;;1.58;0.32;;;23.00;99.90;;;;;;4938314;29;20194;-75
2022/10/15 01:13:25;;;;;;;1.75;0.40;;;22.90;99.90;;;;;;4947570;29;20225;-75
2022/10/15 01:16:01;;;;;;;2.00;0.40;;;23.10;99.90;;;;;;4956827;29;20193;-77
2022/10/15 01:18:38;;;;;;;1.00;0.38;;;23.10;99.90;;;;;;4955007;29;20197;-77
2022/10/15 01:21:15;;;;;;;1.08;0.30;;;23.10;99.90;;;;;;4955668;29;20735;-78
2022/10/15 01:24:25;;;;;;;3.60;0.50;;;23.40;99.90;;;;;;4956916;29;20195;-77
2022/10/15 01:27:39;;;;;;;0.70;0.30;;;23.30;99.90;;;;;;4954206;29;20201;-78
2022/10/15 01:30:33;;;;;;;3.08;0.47;;;23.50;99.90;;;;;;4949667;28;20668;-78
2022/10/15 01:33:26;;;;;;;1.65;0.50;;;23.70;99.90;;;;;;4955172;29;20219;-78
2022/10/15 01:36:02;;;;;;;1.70;0.40;;;23.50;99.90;;;;;;4956528;29;20676;-76
2022/10/15 01:38:47;;;;;;;2.72;0.40;;;23.70;99.90;;;;;;4954535;28;20200;-77
2022/10/15 01:41:24;;;;;;;1.17;0.47;;;23.80;99.90;;;;;;4956598;29;20244;-78
2022/10/15 01:44:01;;;;;;;2.53;0.68;;;23.80;99.90;;;;;;4954924;29;20209;-76
2022/10/15 01:46:38;;;;;;;3.50;0.47;;;24.00;99.90;;;;;;4947713;28;20304;-78
2022/10/15 01:49:10;;;;;;;1.70;0.40;;;24.00;99.90;;;;;;4950583;29;20666;-79
2022/10/15 01:51:43;;;;;;;2.17;0.50;;;24.00;99.90;;;;;;4952999;28;20229;-78
2022/10/15 01:54:51;;;;;;;1.33;0.38;;;24.00;99.90;;;;;;4955854;29;20244;-79
2022/10/15 01:57:24;;;;;;;2.03;0.50;;;23.80;99.90;;;;;;4948808;29;20205;-77
2022/10/15 01:59:55;;;;;;;2.05;0.30;;;23.70;99.90;;;;;;4954288;29;20204;-77
2022/10/15 02:02:28;;;;;;;1.05;0.50;;;23.80;99.90;;;;;;4954450;28;20654;-79
2022/10/15 02:04:58;;;;;;;0.82;0.40;;;23.80;99.90;;;;;;4951112;29;20213;-78
2022/10/15 02:07:38;;;;;;;2.60;0.52;;;23.80;99.90;;;;;;4951648;29;20212;-79
2022/10/15 02:10:15;;;;;;;1.30;0.38;;;23.80;99.90;;;;;;4954844;29;20208;-78
2022/10/15 02:12:54;;;;;;;2.03;0.50;;;23.80;99.90;;;;;;4953033;29;20204;-78
2022/10/15 02:15:36;;;;;;;0.98;0.43;;;23.80;99.90;;;;;;4951954;29;20652;-78
2022/10/15 02:18:16;;;;;;;2.78;0.60;;;23.60;99.90;;;;;;4954499;29;20201;-77
2022/10/15 02:20:52;;;;;;;2.40;0.60;;;23.50;99.90;;;;;;4955039;29;20212;-78
2022/10/15 02:23:26;;;;;;;3.17;0.50;;;23.20;99.90;;;;;;4954756;29;20208;-77
2022/10/15 02:25:58;;;;;;;0.82;0.40;;;22.90;99.90;;;;;;4950110;28;20219;-78
2022/10/15 02:28:31;;;;;;;1.60;0.40;;;22.80;99.90;;;;;;4952466;29;20201;-78
2022/10/15 02:31:03;;;;;;;1.05;0.35;;;22.90;99.90;;;;;;4953830;29;20199;-78
2022/10/15 02:33:37;;;;;;;3.42;0.70;;;23.10;99.90;;;;;;4955461;29;20236;-78
2022/10/15 02:36:09;;;;;;;0.98;0.50;;;23.20;99.90;;;;;;4953226;29;20225;-78
2022/10/15 02:38:42;;;;;;;1.60;0.40;;;23.20;99.90;;;;;;4954746;29;20200;-77
2022/10/15 02:41:13;;;;;;;1.08;0.40;;;23.20;99.90;;;;;;4951942;29;20673;-77
2022/10/15 02:43:44;;;;;;;0.80;0.40;;;22.80;99.90;;;;;;4944653;29;20192;-77
2022/10/15 02:46:16;;;;;;;0.82;0.47;;;22.70;99.90;;;;;;4955778;29;20197;-78
2022/10/15 02:48:48;;;;;;;1.15;0.50;;;22.60;99.90;;;;;;4951381;29;20201;-76
2022/10/15 02:51:19;;;;;;;1.08;0.40;;;22.70;99.90;;;;;;4951743;28;20661;-77
2022/10/15 02:53:50;;;;;;;2.42;0.40;;;22.80;99.90;;;;;;4955183;29;20228;-76
2022/10/15 02:56:21;;;;;;;2.17;0.60;;;22.90;99.90;;;;;;4955502;29;20197;-76
2022/10/15 02:58:51;;;;;;;1.48;0.32;;;22.70;99.90;;;;;;4955284;29;20193;-77
2022/10/15 03:01:22;;;;;;;2.22;0.30;;;22.90;99.90;;;;;;4955156;29;20201;-77
2022/10/15 03:03:55;;;;;;;1.30;0.50;;;22.80;99.90;;;;;;4955345;29;20193;-80
2022/10/15 03:06:26;;;;;;;1.35;0.50;;;22.90;99.90;;;;;;4947789;29;20652;-78
2022/10/15 03:08:56;;;;;;;1.77;0.47;;;22.80;99.90;;;;;;4955151;29;20193;-75
2022/10/15 03:11:27;;;;;;;0.98;0.40;;;22.90;99.90;;;;;;4954943;29;20189;-76
2022/10/15 03:13:58;;;;;;;4.28;0.65;;;22.90;99.90;;;;;;4954777;29;20213;-75
2022/10/15 03:16:29;;;;;;;1.25;0.63;;;22.80;99.90;;;;;;4954928;29;20185;-78
2022/10/15 03:19:01;;;;;;;1.33;0.32;;;22.70;99.90;;;;;;4954698;29;20193;-76
2022/10/15 03:21:32;;;;;;;2.55;0.47;;;22.70;99.90;;;;;;4954886;29;20200;-76
2022/10/15 03:24:03;;;;;;;1.13;0.50;;;22.80;99.90;;;;;;4955135;29;20555;-77
2022/10/15 03:26:34;;;;;;;1.15;0.40;;;22.80;99.90;;;;;;4955124;29;20201;-78
2022/10/15 03:29:04;;;;;;;1.85;0.40;;;22.90;99.90;;;;;;4954449;29;20192;-77
2022/10/15 03:31:35;;;;;;;1.60;0.38;;;22.90;99.90;;;;;;4951477;29;20205;-78
2022/10/15 03:34:08;;;;;;;3.35;0.50;;;22.80;99.90;;;;;;4954494;29;20725;-78
2022/10/15 03:36:39;;;;;;;1.30;0.40;;;22.90;99.90;;;;;;4955042;29;20208;-77
2022/10/15 03:39:09;;;;;;;1.00;0.20;;;22.80;99.90;;;;;;4955071;29;20192;-76
2022/10/15 03:41:40;;;;;;;1.73;0.30;;;22.70;99.90;;;;;;4954940;29;20279;-78
2022/10/15 03:44:12;;;;;;;1.13;0.30;;;22.60;99.90;;;;;;4954792;29;20196;-76
2022/10/15 03:46:43;;;;;;;1.17;0.30;;;22.50;99.90;;;;;;4954658;29;20193;-76
2022/10/15 03:49:15;;;;;;;2.08;0.40;;;22.50;99.90;;;;;;4955037;29;20199;-76
2022/10/15 03:51:46;;;;;;;1.83;0.22;;;22.50;99.90;;;;;;4953060;28;20221;-78
2022/10/15 03:54:17;;;;;;;0.60;0.20;;;22.50;99.90;;;;;;4943866;29;20240;-77
2022/10/15 03:56:47;;;;;;;1.50;0.40;;;22.50;99.90;;;;;;4954629;29;20215;-77
2022/10/15 03:59:18;;;;;;;0.95;0.50;;;22.40;99.90;;;;;;4951941;29;20189;-75
2022/10/15 04:01:49;;;;;;;1.00;0.30;;;22.40;99.90;;;;;;4954628;28;20190;-76
2022/10/15 04:04:22;;;;;;;2.67;0.40;;;22.20;99.90;;;;;;4957996;29;20197;-76
2022/10/15 04:06:52;;;;;;;1.48;0.50;;;22.00;99.90;;;;;;4958599;29;20193;-75
2022/10/15 04:09:23;;;;;;;0.95;0.40;;;22.20;99.90;;;;;;4958278;29;20215;-76
2022/10/15 04:11:54;;;;;;;2.90;0.50;;;22.20;99.90;;;;;;4958420;29;20233;-78
2022/10/15 04:14:25;;;;;;;3.63;0.30;;;22.20;99.90;;;;;;4958364;29;20232;-76
2022/10/15 04:16:57;;;;;;;1.83;0.90;;;22.00;99.90;;;;;;4958319;29;20276;-76
2022/10/15 04:19:30;;;;;;;1.27;0.50;;;22.00;99.90;;;;;;4958193;29;20669;-76
2022/10/15 04:22:01;;;;;;;3.80;0.47;;;22.10;99.90;;;;;;4958336;29;20243;-75
2022/10/15 04:24:32;;;;;;;2.15;0.40;;;22.10;99.90;;;;;;4957926;29;20205;-76
2022/10/15 04:27:02;;;;;;;0.88;0.40;;;22.10;99.90;;;;;;4957815;29;20186;-77
2022/10/15 04:29:33;;;;;;;1.83;0.50;;;22.10;99.90;;;;;;4957620;29;20188;-76
2022/10/15 04:32:04;;;;;;;1.33;0.40;;;22.00;99.90;;;;;;4957810;29;20204;-77
2022/10/15 04:34:37;;;;;;;1.92;0.55;;;22.00;99.90;;;;;;4957260;29;20222;-77
2022/10/15 04:37:08;;;;;;;1.02;0.40;;;22.00;99.90;;;;;;4957505;29;20192;-77
2022/10/15 04:39:39;;;;;;;2.08;0.50;;;22.00;99.90;;;;;;4957886;29;20196;-76
2022/10/15 04:42:10;;;;;;;2.20;0.60;;;21.90;99.90;;;;;;4957614;29;20225;-76
2022/10/15 04:44:40;;;;;;;2.30;0.65;;;21.90;99.90;;;;;;4957513;29;20561;-76
2022/10/15 04:47:11;;;;;;;2.38;0.55;;;21.70;99.90;;;;;;4957605;29;20201;-77
2022/10/15 04:49:44;;;;;;;1.92;0.45;;;21.70;99.90;;;;;;4947081;29;20288;-77
2022/10/15 04:52:15;;;;;;;2.00;0.40;;;21.70;99.90;;;;;;4953304;28;20585;-77
2022/10/15 04:54:46;;;;;;;3.75;0.52;;;21.70;99.90;;;;;;4948903;29;20244;-77
2022/10/15 04:57:16;;;;;;;1.13;0.30;;;21.60;99.90;;;;;;4955291;29;20225;-76
2022/10/15 04:59:47;;;;;;;2.00;0.50;;;21.70;99.90;;;;;;4956895;29;20195;-76
2022/10/15 05:02:18;;;;;;;1.85;0.50;;;21.70;99.90;;;;;;4952879;29;20189;-76
2022/10/15 05:04:50;;;;;;;3.50;0.57;;;21.80;99.90;;;;;;4953294;29;20197;-76
2022/10/15 05:07:21;;;;;;;1.83;0.60;;;21.80;99.90;;;;;;4954914;29;20200;-77
2022/10/15 05:09:52;;;;;;;4.05;0.60;;;21.70;99.90;;;;;;4957325;29;20208;-76
2022/10/15 05:12:23;;;;;;;2.28;0.40;;;21.80;99.90;;;;;;4957289;29;20193;-76
2022/10/15 05:14:53;;;;;;;3.05;0.45;;;21.70;99.90;;;;;;4956831;28;20217;-77
2022/10/15 05:17:24;;;;;;;1.88;0.50;;;21.70;99.90;;;;;;4956897;29;20193;-77
2022/10/15 05:19:57;;;;;;;2.70;0.55;;;21.70;99.90;;;;;;4957064;29;20189;-77
2022/10/15 05:22:27;;;;;;;2.33;0.52;;;21.70;99.90;;;;;;4957004;29;20204;-75
2022/10/15 05:24:58;;;;;;;1.52;0.47;;;21.60;99.90;;;;;;4957239;29;20211;-76
2022/10/15 05:27:29;;;;;;;2.75;0.50;;;21.50;99.90;;;;;;4956989;29;20543;-78
2022/10/15 05:30:00;;;;;;;1.75;0.57;;;21.30;99.90;;;;;;4956949;29;20186;-76
2022/10/15 05:32:30;;;;;;;2.13;0.50;;;21.20;99.90;;;;;;4956504;29;20208;-76
2022/10/15 05:35:03;;;;;;;3.75;1.40;;;21.20;99.90;;;;;;4956974;29;20220;-76
2022/10/15 05:37:34;;;;;;;4.90;0.90;;;21.20;99.90;;;;;;4956444;29;20193;-79
2022/10/15 05:40:05;;;;;;;5.13;0.80;;;21.10;99.90;;;;;;4956958;29;20223;-75
2022/10/15 05:42:35;;;;;;;4.18;0.82;;;21.10;99.90;;;;;;4956890;29;20204;-76
2022/10/15 05:45:06;;;;;;;5.03;0.68;;;21.10;99.90;;;;;;4955762;29;20220;-75
2022/10/15 05:47:37;;;;;;;1.20;0.50;;;21.10;99.90;;;;;;4956885;29;20189;-77
2022/10/15 05:50:10;;;;;;;8.27;0.80;;;21.10;99.90;;;;;;4956364;29;20191;-76
2022/10/15 05:52:41;;;;;;;4.70;1.52;;;21.10;99.90;;;;;;4942218;28;20221;-78
2022/10/15 05:55:14;;;;;;;6.07;1.00;;;21.00;99.90;;;;;;4928842;29;20231;-77
2022/10/15 05:57:45;;;;;;;2.80;0.80;;;20.90;99.90;;;;;;4941424;29;20277;-77
2022/10/15 06:00:16;;;;;;;5.53;0.70;;;20.90;99.90;;;;;;4956019;29;20272;-76
2022/10/15 06:02:48;;;;;;;1.67;0.70;;;20.90;99.90;;;;;;4956281;29;20201;-76
2022/10/15 06:05:21;;;;;;;2.95;0.40;;;20.80;99.90;;;;;;4956515;29;20200;-78
2022/10/15 06:07:52;;;;;;;0.93;0.30;;;20.70;99.90;;;;;;4955745;29;20197;-76
2022/10/15 06:10:23;;;;;;;1.30;0.40;;;20.60;99.90;;;;;;4956106;29;20193;-78
2022/10/15 06:12:53;;;;;;;1.45;0.30;;;20.50;99.90;;;;;;4955934;29;20738;-76
2022/10/15 06:15:25;;;;;;;2.53;0.57;;;20.50;99.90;;;;;;4955584;29;20213;-78
2022/10/15 06:17:56;;;;;;;1.98;0.60;;;20.60;99.90;;;;;;4956473;29;20197;-76
2022/10/15 06:20:29;;;;;;;0.80;0.50;;;20.50;99.90;;;;;;4956047;29;20201;-77
2022/10/15 06:23:02;;;;;;;2.63;0.40;;;20.50;99.90;;;;;;4955869;29;20203;-77
2022/10/15 06:25:33;;;;;;;3.70;0.80;;;20.50;99.90;;;;;;4955525;28;20212;-77
2022/10/15 06:28:05;;;;;;;4.00;0.80;;;20.50;99.90;;;;;;4956071;29;20199;-77
2022/10/15 06:30:35;;;;;;;5.75;0.60;;;20.50;99.90;;;;;;4953171;29;20240;-76
2022/10/15 06:33:06;;;;;;;4.18;1.08;;;20.40;99.90;;;;;;4955927;29;20281;-75
2022/10/15 06:35:40;;;;;;;2.10;0.80;;;20.30;99.90;;;;;;4955408;29;20224;-76
2022/10/15 06:38:10;;;;;;;3.53;0.70;;;20.20;99.90;;;;;;4955920;29;20248;-76
2022/10/15 06:40:41;;;;;;;1.92;0.60;;;20.20;99.90;;;;;;4955771;29;20652;-76
2022/10/15 06:43:13;;;;;;;1.95;0.43;;;20.10;99.90;;;;;;4955864;29;20197;-77
2022/10/15 06:45:44;;;;;;;2.83;0.70;;;20.00;99.90;;;;;;4952247;29;20198;-77
2022/10/15 06:48:15;;;;;;;1.98;0.60;;;20.00;99.90;;;;;;4936687;29;20200;-77
2022/10/15 06:50:48;;;;;;;5.50;0.70;;;20.00;99.90;;;;;;4936534;29;20671;-75
2022/10/15 06:53:19;;;;;;;4.43;0.90;;;19.90;99.90;;;;;;4952607;29;20236;-77
2022/10/15 06:55:49;;;;;;;2.28;1.13;;;19.90;99.90;;;;;;4936541;29;20221;-75
2022/10/15 06:58:20;;;;;;;3.63;0.70;;;19.90;99.90;;;;;;4946159;29;20227;-77
2022/10/15 07:00:51;;;;;;;4.97;0.90;;;19.80;99.90;;;;;;4955578;29;20203;-76
2022/10/15 07:03:22;;;;;;;4.70;1.33;;;19.80;99.90;;;;;;4953513;29;20211;-77
2022/10/15 07:05:54;;;;;;;3.53;1.20;;;19.70;99.90;;;;;;4955220;29;20205;-76
2022/10/15 07:08:27;;;;;;;2.08;1.00;;;19.60;99.90;;;;;;4955567;29;20240;-76
2022/10/15 07:10:57;;;;;;;5.53;1.95;;;19.60;99.90;;;;;;4942059;29;20194;-76
2022/10/15 07:13:28;;;;;;;6.40;1.13;;;19.50;99.90;;;;;;4939921;29;20196;-75
2022/10/15 07:15:59;;;;;;;6.10;1.20;;;19.50;99.90;;;;;;4955317;29;20223;-78
2022/10/15 07:18:30;;;;;;;4.43;0.95;;;19.40;99.90;;;;;;4955139;29;20551;-77
2022/10/15 07:21:02;;;;;;;4.47;0.95;;;19.40;99.90;;;;;;4955406;29;20537;-78
2022/10/15 07:23:33;;;;;;;5.50;1.35;;;19.40;99.90;;;;;;4955380;29;20207;-76
2022/10/15 07:26:04;;;;;;;5.75;1.20;;;19.40;99.90;;;;;;4955278;29;20566;-76
2022/10/15 07:28:35;;;;;;;5.22;0.80;;;19.40;99.90;;;;;;4955446;29;20201;-76
2022/10/15 07:31:08;;;;;;;4.00;1.08;;;19.30;99.90;;;;;;4955343;29;20193;-75
2022/10/15 07:33:38;;;;;;;1.60;0.80;;;19.30;99.90;;;;;;4951767;29;20205;-76
2022/10/15 07:36:13;;;;;;;7.05;1.13;;;19.20;99.90;;;;;;4950321;29;20227;-76
2022/10/15 07:38:45;;;;;;;2.88;1.20;;;19.20;99.90;;;;;;4956699;29;20271;-75
2022/10/15 07:41:16;;;;;;;6.40;1.40;;;19.20;99.90;;;;;;4950694;29;20200;-77
2022/10/15 07:43:46;;;;;;;2.70;1.00;;;19.10;99.90;;;;;;4955156;29;20554;-76
2022/10/15 07:46:17;;;;;;;4.13;1.00;;;19.00;99.90;;;;;;4957064;29;20269;-76
2022/10/15 07:48:48;;;;;;;2.60;0.88;;;19.00;99.90;;;;;;4944020;29;20200;-76
2022/10/15 07:51:21;;;;;;;4.20;0.90;;;19.00;99.90;;;;;;4955715;28;20234;-77
2022/10/15 07:53:52;;;;;;;7.13;1.30;;;18.90;99.90;;;;;;4951632;29;20700;-76
2022/10/15 07:56:22;;;;;;;5.30;1.60;;;18.90;99.90;;;;;;4958086;29;20226;-77
2022/10/15 07:58:53;;;;;;;4.97;1.30;;;18.80;99.90;;;;;;4957906;29;20193;-76
2022/10/15 08:01:24;;;;;;;5.15;1.25;;;18.80;99.90;;;;;;4955897;29;20220;-75
2022/10/15 08:03:55;;;;;;;2.75;1.20;;;18.70;99.90;;;;;;4954261;28;20197;-76
2022/10/15 08:06:27;;;;;;;5.15;1.20;;;18.70;99.90;;;;;;4953645;29;20686;-77
2022/10/15 08:08:58;;;;;;;1.67;0.60;;;18.60;99.90;;;;;;4954872;29;20289;-74
2022/10/15 08:11:29;;;;;;;4.10;0.88;;;18.60;99.90;;;;;;4955767;29;20252;-76
2022/10/15 08:14:02;;;;;;;1.90;0.60;;;18.50;99.90;;;;;;4955745;29;20232;-76
2022/10/15 08:16:33;;;;;;;3.90;0.70;;;18.50;99.90;;;;;;4955333;29;20228;-77
2022/10/15 08:19:04;;;;;;;3.55;0.93;;;18.50;99.90;;;;;;4953918;29;20193;-78
2022/10/15 08:21:36;;;;;;;4.03;1.05;;;18.50;99.90;;;;;;4956466;29;20193;-74
2022/10/15 08:24:08;;;;;;;1.52;0.80;;;18.40;99.90;;;;;;4954294;29;20284;-74
2022/10/15 08:26:39;;;;;;;2.75;1.23;;;18.40;99.90;;;;;;4955873;29;20291;-76
2022/10/15 08:29:11;;;;;;;3.22;0.93;;;18.30;99.90;;;;;;4951188;29;20198;-75
2022/10/15 08:31:42;;;;;;;3.70;1.05;;;18.30;99.90;;;;;;4956256;29;20711;-76
2022/10/15 08:34:13;;;;;;;1.35;0.90;;;18.30;99.90;;;;;;4951665;29;20197;-75
2022/10/15 08:36:45;;;;;;;4.38;1.10;;;18.30;99.90;;;;;;4952148;29;20221;-77
2022/10/15 08:39:16;;;;;;;4.38;1.15;;;18.20;99.90;;;;;;4954385;29;20186;-76
2022/10/15 08:41:50;;;;;;;5.15;0.95;;;18.20;99.90;;;;;;4951894;29;20207;-75
2022/10/15 08:44:26;;;;;;;3.20;1.02;;;18.20;99.90;;;;;;4953982;29;20199;-80
2022/10/15 08:47:04;;;;;;;3.58;1.10;;;18.10;99.90;;;;;;4948233;29;20204;-75
2022/10/15 08:49:45;;;;;;;4.30;1.00;;;18.10;99.90;;;;;;4955898;28;20203;-78
2022/10/15 08:52:22;;;;;;;2.33;0.80;;;18.10;99.90;;;;;;4947541;28;20232;-77
2022/10/15 08:54:53;;;;;;;4.90;1.20;;;18.10;99.90;;;;;;4953426;29;20228;-77
2022/10/15 08:57:38;;;;;;;5.53;1.35;;;18.10;99.90;;;;;;4956234;29;20193;-77
2022/10/15 09:00:16;;;;;;;4.25;1.13;;;18.00;99.90;;;;;;4949462;29;20201;-78
2022/10/15 09:02:54;;;;;;;5.43;1.33;;;18.00;99.90;;;;;;4945696;29;20207;-77
2022/10/15 09:05:31;;;;;;;3.30;1.05;;;18.00;99.90;;;;;;4950845;29;20204;-78
2022/10/15 09:08:14;;;;;;;6.28;1.10;;;18.00;99.90;;;;;;4955307;29;20544;-78
2022/10/15 09:10:49;;;;;;;4.63;1.20;;;18.00;99.90;;;;;;4952421;29;20562;-76
2022/10/15 09:13:26;;;;;;;2.88;1.17;;;18.00;99.90;;;;;;4946399;29;20533;-79
2022/10/15 09:16:01;;;;;;;4.72;1.23;;;17.90;99.90;;;;;;4953962;29;20224;-80
2022/10/15 09:18:37;;;;;;;5.00;1.20;;;17.90;99.90;;;;;;4946524;29;20687;-77
2022/10/15 09:21:10;;;;;;;4.20;1.50;;;17.90;99.90;;;;;;4948927;28;20200;-77
2022/10/15 09:23:43;;;;;;;4.70;1.70;;;17.90;99.90;;;;;;4951686;28;20207;-81
2022/10/15 09:26:24;;;;;;;2.92;1.70;;;17.90;99.90;;;;;;4951084;29;20202;-79
2022/10/15 09:29:01;;;;;;;5.32;1.63;;;17.80;99.90;;;;;;4953465;29;20203;-79
2022/10/15 09:31:36;;;;;;;3.08;1.20;;;17.80;99.90;;;;;;4952943;29;20193;-80
2022/10/15 09:34:13;;;;;;;3.17;1.17;;;17.80;99.90;;;;;;4948090;29;20205;-82
2022/10/15 09:36:48;;;;;;;5.32;1.40;;;17.80;99.90;;;;;;4950966;29;20220;-81
2022/10/15 09:39:37;;;;;;;3.83;2.00;;;17.70;99.90;;;;;;4949548;29;21112;-81
2022/10/15 09:42:17;;;;;;;4.30;1.70;;;17.80;99.90;;;;;;4952886;29;20205;-78
2022/10/15 09:44:49;;;;;;;5.70;1.88;;;17.70;99.90;;;;;;4947158;29;20200;-80
2022/10/15 09:47:25;;;;;;;6.10;1.42;;;17.70;99.90;;;;;;4946147;29;20543;-80
2022/10/15 09:49:55;;;;;;;5.45;1.60;;;17.70;99.90;;;;;;4953798;29;20201;-80
2022/10/15 09:52:41;;;;;;;3.15;1.50;;;17.70;99.90;;;;;;4950598;28;20228;-77
2022/10/15 09:55:26;;;;;;;4.20;1.33;;;17.70;99.90;;;;;;4946524;29;20562;-77
2022/10/15 09:57:59;;;;;;;4.25;1.20;;;17.70;99.90;;;;;;4949160;29;20206;-76
2022/10/15 10:00:57;;;;;;;3.15;1.27;;;17.70;99.90;;;;;;4949387;28;20209;-76
2022/10/15 10:03:30;;;;;;;4.28;1.42;;;17.70;99.90;;;;;;4952920;29;20201;-76
2022/10/15 10:06:07;;;;;;;4.13;1.40;;;17.70;99.90;;;;;;4952856;29;20198;-76
2022/10/15 10:08:41;;;;;;;3.65;1.20;;;17.80;99.90;;;;;;4950926;29;20205;-77
2022/10/15 10:11:14;;;;;;;3.85;1.25;;;17.80;99.90;;;;;;4953673;29;20219;-78
2022/10/15 10:13:53;;;;;;;3.08;1.20;;;17.80;99.90;;;;;;4951726;29;20205;-76
2022/10/15 10:16:24;;;;;;;5.43;1.23;;;17.80;99.90;;;;;;4948636;29;20235;-76
2022/10/15 10:19:16;;;;;;;4.32;1.00;;;17.80;99.90;;;;;;4953939;29;20209;-76
2022/10/15 10:21:46;;;;;;;3.65;1.00;;;17.80;99.90;;;;;;4946490;29;20219;-76
2022/10/15 10:24:30;;;;;;;4.07;1.00;;;17.90;99.90;;;;;;4950837;29;20216;-77
2022/10/15 10:27:03;;;;;;;5.60;0.95;;;17.90;99.90;;;;;;4953483;29;20205;-76
2022/10/15 10:29:42;;;;;;;2.85;1.30;;;17.90;99.90;;;;;;4953177;29;20198;-76
2022/10/15 10:32:20;;;;;;;4.47;1.10;;;17.80;99.90;;;;;;4950417;28;20661;-76
2022/10/15 10:34:52;;;;;;;4.18;1.00;;;17.90;99.90;;;;;;4951552;28;20204;-77
2022/10/15 10:37:23;;;;;;;2.28;0.90;;;17.80;99.90;;;;;;4949449;29;20221;-76
2022/10/15 10:39:59;;;;;;;3.92;1.17;;;17.80;99.90;;;;;;4948974;29;20236;-81
2022/10/15 10:42:37;;;;;;;3.90;1.00;;;17.80;99.90;;;;;;4948768;29;20284;-76
2022/10/15 10:45:22;;;;;;;3.33;1.10;;;17.80;99.90;;;;;;4949679;29;20655;-76
2022/10/15 10:47:53;;;;;;;3.95;1.38;;;17.80;99.90;;;;;;4949144;29;20207;-75
2022/10/15 10:50:39;;;;;;;2.83;1.10;;;17.80;99.90;;;;;;4952801;28;20204;-76
2022/10/15 10:53:26;;;;;;;4.55;1.15;;;17.80;99.90;;;;;;4949671;29;20255;-76
2022/10/15 10:55:59;;;;;;;3.58;1.10;;;17.80;99.90;;;;;;4946895;29;20654;-76
2022/10/15 10:58:34;;;;;;;4.63;1.05;;;17.70;99.90;;;;;;4950605;29;20193;-76
2022/10/15 11:01:05;;;;;;;4.95;1.00;;;17.70;99.90;;;;;;4952127;29;20200;-75
2022/10/15 11:03:40;;;;;;;1.50;0.85;;;17.80;99.90;;;;;;4950682;29;20204;-77
2022/10/15 11:06:26;;;;;;;1.83;0.77;;;17.70;99.90;;;;;;4949187;29;20242;-77
2022/10/15 11:09:07;;;;;;;2.83;0.80;;;17.80;99.90;;;;;;4950715;29;20256;-76
2022/10/15 11:11:47;;;;;;;2.60;0.85;;;17.70;99.90;;;;;;4952115;28;20193;-82
2022/10/15 11:14:30;;;;;;;3.83;1.02;;;17.80;99.90;;;;;;4946237;29;20203;-76
2022/10/15 11:17:08;;;;;;;5.97;0.90;;;17.80;99.90;;;;;;4951658;29;22050;-78
2022/10/15 11:19:45;;;;;;;2.33;0.93;;;17.80;99.90;;;;;;4953898;29;20200;-77
2022/10/15 11:22:26;;;;;;;2.70;0.80;;;17.80;99.90;;;;;;4950946;29;20550;-76
2022/10/15 11:25:05;;;;;;;4.38;1.17;;;17.80;99.90;;;;;;4953683;29;20197;-76
2022/10/15 11:27:54;;;;;;;4.10;0.80;;;17.70;99.90;;;;;;4954780;29;20211;-76
2022/10/15 11:30:43;;;;;;;3.13;0.70;;;17.80;99.90;;;;;;4952232;29;20570;-76
2022/10/15 11:33:32;;;;;;;2.28;0.70;;;17.80;99.90;;;;;;4954482;29;20272;-76
2022/10/15 11:36:20;;;;;;;3.92;0.60;;;17.80;99.90;;;;;;4946787;29;20209;-76
2022/10/15 11:38:55;;;;;;;2.85;0.80;;;17.80;99.90;;;;;;4948596;29;20635;-77
2022/10/15 11:41:39;;;;;;;4.00;1.10;;;17.80;99.90;;;;;;4954144;29;20207;-78
2022/10/15 11:44:24;;;;;;;5.45;0.80;;;17.80;99.90;;;;;;4950854;29;20205;-76
2022/10/15 11:47:06;;;;;;;3.35;0.88;;;17.80;99.90;;;;;;4949828;29;20207;-76
2022/10/15 11:49:50;;;;;;;5.03;0.88;;;17.80;99.90;;;;;;4953091;29;20212;-78
2022/10/15 11:52:39;;;;;;;3.47;1.00;;;17.80;99.90;;;;;;4948363;28;20220;-76
2022/10/15 11:55:15;;;;;;;3.67;0.80;;;17.80;99.90;;;;;;4953145;29;20208;-77
2022/10/15 11:57:49;;;;;;;2.35;0.93;;;17.80;99.90;;;;;;4944189;29;20220;-76
2022/10/15 12:00:31;;;;;;;5.00;0.93;;;17.80;99.90;;;;;;4948311;29;20228;-76
2022/10/15 12:03:09;;;;;;;7.35;1.00;;;17.80;99.90;;;;;;4953152;29;20197;-76
2022/10/15 12:05:44;;;;;;;2.05;1.00;;;17.80;99.90;;;;;;4948686;29;20197;-76
2022/10/15 12:08:16;;;;;;;3.22;0.80;;;17.70;99.90;;;;;;4947322;28;20628;-76
2022/10/15 12:11:13;;;;;;;2.80;0.70;;;17.80;99.90;;;;;;4949256;29;20197;-76
2022/10/15 12:13:50;;;;;;;5.80;0.85;;;17.70;99.90;;;;;;4948182;29;20205;-81
2022/10/15 12:16:28;;;;;;;1.75;0.63;;;17.70;99.90;;;;;;4947027;29;20216;-81
2022/10/15 12:19:13;;;;;;;4.85;0.82;;;17.80;99.90;;;;;;4950563;29;20201;-83
2022/10/15 12:21:46;;;;;;;6.43;1.00;;;17.70;99.90;;;;;;4949959;29;20728;-78
2022/10/15 12:24:52;;;;;;;2.40;0.75;;;17.70;99.90;;;;;;4948941;28;20211;-77
2022/10/15 12:27:33;;;;;;;2.65;0.77;;;17.70;99.90;;;;;;4956231;29;20200;-79
2022/10/15 12:30:27;;;;;;;3.72;0.80;;;17.60;99.90;;;;;;4954836;29;20629;-79
2022/10/15 12:32:58;;;;;;;3.20;0.80;;;17.70;99.90;;;;;;4954300;29;20213;-81
2022/10/15 12:35:37;;;;;;;3.78;0.93;;;17.70;99.90;;;;;;4954564;29;20201;-81
2022/10/15 12:38:32;;;;;;;3.42;1.00;;;17.70;99.90;;;;;;4955545;29;20227;-82
2022/10/15 12:41:06;;;;;;;2.08;0.75;;;17.70;99.90;;;;;;4953703;29;20201;-80
2022/10/15 12:43:39;;;;;;;1.42;0.60;;;17.70;99.90;;;;;;4954864;29;20204;-83
2022/10/15 12:46:12;;;;;;;3.95;0.80;;;17.70;99.90;;;;;;4951794;29;20206;-78
2022/10/15 12:48:44;;;;;;;5.50;0.82;;;17.60;99.90;;;;;;4951016;29;20671;-79
2022/10/15 12:51:43;;;;;;;3.92;1.10;;;17.60;99.90;;;;;;4955475;28;20231;-81
2022/10/15 12:54:36;;;;;;;5.78;1.10;;;17.70;99.90;;;;;;4950338;29;20730;-82
2022/10/15 12:57:41;;;;;;;1.73;0.70;;;17.60;99.90;;;;;;4952052;29;20221;-78
2022/10/15 13:00:42;;;;;;;4.07;0.77;;;17.60;99.90;;;;;;4936456;29;20197;-81
2022/10/15 13:03:31;;;;;;;3.13;0.85;;;17.60;99.90;;;;;;4852693;29;20193;-80
2022/10/15 13:06:27;;;;;;;3.05;0.90;;;17.60;99.90;;;;;;4949043;29;20217;-78
2022/10/15 13:09:23;;;;;;;2.25;0.65;;;17.50;99.90;;;;;;4955687;29;20217;-79
2022/10/15 13:11:56;;;;;;;3.58;0.65;;;17.60;99.90;;;;;;4949826;29;20201;-81
2022/10/15 13:14:41;;;;;;;3.72;0.85;;;17.50;99.90;;;;;;4951511;29;20205;-80
2022/10/15 13:17:19;;;;;;;3.53;0.90;;;17.50;99.90;;;;;;4952707;29;20722;-80
2022/10/15 13:19:58;;;;;;;5.47;1.02;;;17.40;99.90;;;;;;4953879;29;20201;-81
2022/10/15 13:22:31;;;;;;;6.57;0.82;;;17.40;99.90;;;;;;4954495;29;20208;-80
2022/10/15 13:25:04;;;;;;;3.58;0.93;;;17.40;99.90;;;;;;4953505;29;20209;-83
2022/10/15 13:27:36;;;;;;;4.53;0.90;;;17.40;99.90;;;;;;4954974;29;20704;-78
2022/10/15 13:30:09;;;;;;;9.10;1.20;;;17.50;99.90;;;;;;4950774;29;20201;-78